»·PEaware :: FBTPC KSBP-KSBP

FBTPC :: KSBP-KSBP

FLIGHT INFORMATION

Flight Status: Arrived
Operator: Unknown
More flights by this operator :: More flights under this callsign
Pilot: Craig H. (13593)
Aircraft: CESSNA 172 SKYHAWK
(C172)
More flights by this aircraft type
Origin: KSBP San Luis Co Regl
United States
Destination: KSBP San Luis Co Regl
United States
More flights between these airports :: More routes between these airports
Route:
File this flight plan on PilotEdge
Remarks: CLOSED TRAFFIC
Altitude:
(Current/Filed)
1,000ft
Speed:
(Current/Filed)
100kts
Departed: 11-Jan-17 01:32 PM
Arrived: 11-Jan-17 02:24 PM
Distance/Time
Traveled:
0nm/0:51
Distance/Time
To Go:
Arrived

Flight Plot

Page will automatically refresh every two minutes.


Map Options




Map Legend


Flown Route
Filed Route
Departure Airport
Arrival Airport
Navaid (VOR, NDB)
Fix

Horizontal Profiles

Position Reports

Time Latitude Longitude Heading Altitude Ground
Speed
11-Jan-17 13:19 35.238924 -120.639413 180 192ft 0kts
11-Jan-17 13:20 35.238924 -120.639413 180 192ft 0kts
11-Jan-17 13:21 35.238924 -120.639413 180 192ft 0kts
11-Jan-17 13:22 35.238924 -120.639413 180 192ft 0kts
11-Jan-17 13:23 35.238924 -120.639413 180 192ft 0kts
11-Jan-17 13:24 35.238924 -120.639413 180 192ft 0kts
11-Jan-17 13:25 35.237538 -120.639214 129 193ft 12kts
11-Jan-17 13:26 35.233742 -120.632564 125 212ft 25kts
11-Jan-17 13:27 35.233197 -120.632179 226 211ft 0kts
11-Jan-17 13:28 35.233197 -120.632179 226 211ft 0kts
11-Jan-17 13:29 35.233197 -120.632179 226 211ft 0kts
11-Jan-17 13:30 35.233197 -120.632179 226 211ft 0kts
11-Jan-17 13:31 35.233192 -120.632185 226 211ft 1kts
11-Jan-17 13:32 35.241549 -120.647150 308 576ft 82kts
11-Jan-17 13:33 35.237442 -120.668443 220 1161ft 86kts
11-Jan-17 13:34 35.221742 -120.658194 121 1150ft 76kts
11-Jan-17 13:35 35.212284 -120.635019 76 1098ft 80kts
11-Jan-17 13:36 35.227044 -120.623068 306 704ft 79kts
11-Jan-17 13:37 35.238697 -120.643279 305 201ft 75kts
11-Jan-17 13:38 35.249819 -120.663930 259 845ft 81kts
11-Jan-17 13:39 35.232513 -120.676653 133 1145ft 80kts
11-Jan-17 13:40 35.222227 -120.654407 122 1115ft 74kts
11-Jan-17 13:41 35.213146 -120.633920 44 1029ft 71kts
11-Jan-17 13:42 35.228058 -120.622509 297 482ft 69kts
11-Jan-17 13:43 35.237279 -120.640771 304 204ft 75kts
11-Jan-17 13:44 35.241024 -120.660901 222 1125ft 76kts
11-Jan-17 13:45 35.224696 -120.655600 129 1213ft 82kts
11-Jan-17 13:46 35.209770 -120.635085 134 1181ft 71kts
11-Jan-17 13:47 35.202259 -120.617977 36 1052ft 65kts
11-Jan-17 13:48 35.217762 -120.607457 311 1050ft 72kts
11-Jan-17 13:49 35.229238 -120.626467 303 489ft 64kts
11-Jan-17 13:50 35.239086 -120.643500 309 389ft 68kts
11-Jan-17 13:51 35.239721 -120.662828 216 1216ft 80kts
11-Jan-17 13:52 35.223839 -120.653167 132 1084ft 75kts
11-Jan-17 13:53 35.210444 -120.634909 133 1050ft 70kts
11-Jan-17 13:54 35.210252 -120.617916 34 908ft 64kts
11-Jan-17 13:55 35.224648 -120.618786 309 645ft 60kts
11-Jan-17 13:56 35.235379 -120.637390 305 202ft 61kts
11-Jan-17 13:57 35.243772 -120.657837 221 1012ft 86kts
11-Jan-17 13:58 35.225728 -120.659758 127 1189ft 84kts
11-Jan-17 13:59 35.212831 -120.639499 94 1031ft 69kts
11-Jan-17 14:00 35.226881 -120.625876 20 569ft 67kts
11-Jan-17 14:01 35.238779 -120.643067 308 366ft 73kts
11-Jan-17 14:02 35.235432 -120.661956 217 1233ft 84kts
11-Jan-17 14:03 35.219769 -120.649222 129 1192ft 74kts
11-Jan-17 14:04 35.211819 -120.629628 30 937ft 80kts
11-Jan-17 14:05 35.229453 -120.627116 308 576ft 74kts
11-Jan-17 14:06 35.240602 -120.645978 307 473ft 78kts
11-Jan-17 14:07 35.233607 -120.666423 216 1409ft 85kts
11-Jan-17 14:08 35.217277 -120.653025 129 1346ft 81kts
11-Jan-17 14:09 35.204300 -120.635970 137 1060ft 71kts
11-Jan-17 14:10 35.213098 -120.618529 38 836ft 73kts
11-Jan-17 14:11 35.228726 -120.625627 304 485ft 75kts
11-Jan-17 14:12 35.240281 -120.645419 305 509ft 75kts
11-Jan-17 14:13 35.235045 -120.666260 217 1224ft 86kts
11-Jan-17 14:14 35.220536 -120.651735 120 1105ft 74kts
11-Jan-17 14:15 35.209201 -120.630322 122 1185ft 75kts
11-Jan-17 14:16 35.219805 -120.614395 20 846ft 78kts
11-Jan-17 14:17 35.232805 -120.632787 300 283ft 69kts
11-Jan-17 14:18 35.244637 -120.652554 286 872ft 79kts
11-Jan-17 14:19 35.229354 -120.668998 169 1070ft 82kts
11-Jan-17 14:20 35.216701 -120.645545 123 1131ft 73kts
11-Jan-17 14:21 35.205693 -120.625133 116 1021ft 73kts
11-Jan-17 14:22 35.222449 -120.613881 296 691ft 78kts
11-Jan-17 14:23 35.233193 -120.633432 299 237ft 57kts
11-Jan-17 14:24 35.237846 -120.640825 95 188ft 8kts
11-Jan-17 14:25 35.238224 -120.637996 9 198ft 22kts

Navigation Log

Ident Type
1. KSBP Airport
2. KSBP Airport